Decoded Metar for UUBW ( in ) (IATA:) | Meteo·Mobile Aviation Weather
aviador You're here:

UUBW Decoded Metar

in
Report Time2018-10-17 05:30:00
UTC Time2018-10-17 05:47:30
Flight Rules mvfr MVFR
Wind270° at 4 kt
W.Rank270° ranks 10
Current wind is below 270° avg. (7.4)
Visibility7000 m
Phenomena:N/A
Clouds:N/A
Expected CloudBase > 1,200 ft AGL from Temp-Dew spread
CeilingNone
Temp09°C
Dew Point06°C (82% RH)
AAT6.7°C
QNH1024 hPa
Raw Report
METAR UUBW 170530Z 27002MPS 7000 NSC 09/06 Q1024 R30/010060 NOSIG=

Extra information for UUBW:More info

Social comments